Карамышево

СКИДКИ НА СМАРТФОНЫ!

Карта отелей и гостиниц, располагающихся рядом с аэропортом Карамышево :

Карамышево Липецкая область 52° 22' 9.48" N, 39° 31' 27.9588" E
Код аэродрома ИКАО
ZB1H
Код аэродрома RU
ЗБ1Х
Координаты
N52.36930° E039.52443°
Превышение над уровнем моря
114
Основная полоса
07/25
Курс магнитный
073,9/253,9
Длина основной ВПП
400
Ширина основной ВПП
20
Покрытие основной ВПП
Твёрдое (асфальт)
Освещение ВПП
Нет
Тип: 
Аэродром
Класс аэродрома: 
Принадлежность: 
ГА
Статус: 
Недействующий
Сайт: 
E-mail аэродрома: 
Страна: 
Россия
Регион: 
Липецкая область
Город: 
Дополнительная информация: 
Площадка АХР.

Скидки на навигаторы!

Найти трансфер

С помощью этой формы Вы можете найти трансфер из аэропорта Карамышево в город, аэропорт или вокзал:

Погода в аэропортах:

Авиационная погода в Сургуте

Регион: 
Погода METAR: 
USRR 091430Z 01004MPS 2300 HZ BKN022 24/19 Q1016 R25/CLRD60 TEMPO 1200 HZ RMK OBST OBSC QFE756
Время наблюдения
2022-08-09T14:30:00Z
Температура C
24.0
Точка росы
19.0
Направление ветра
10
Скорость ветра (узлы)
8
Метео видимость
1.43
Облачность
BKN
Нижняя граница облачности (футы)
2200
Явления погоды
HZ
Условия полета
IFR
Аэропорт подробнее: 
BKN – значительная (рассеянная, разорванная) облачность;
HZ – мгла (видимость менее 10 км);

Авиационная погода в Елизово

Регион: 
Погода METAR: 
UHPP 091600Z 15006MPS 8000 -SHRA SCT008 OVC031CB 12/12 Q1014 R16R/CLRD70 NOSIG RMK QFE757/1010
Время наблюдения
2022-08-09T16:00:00Z
Температура C
12.0
Точка росы
12.0
Направление ветра
150
Скорость ветра (узлы)
12
Метео видимость
4.97
Облачность
SCT
OVC
Нижняя граница облачности (футы)
800
3100
Явления погоды
-SHRA
Условия полета
MVFR
Аэропорт подробнее: 
SCT – разбросанная отдельная облачность; OVC – сплошная облачность;
-SHRA - слабый ливневой дождь;

Авиационная погода в Череповце

Регион: 
Погода METAR: 
ULWC 091530Z 04003MPS 9999 TS SCT026CB 19/12 Q1023 R21/010063 NOSIG RMK QFE757/1010
Время наблюдения
2022-08-09T15:30:00Z
Температура C
19.0
Точка росы
12.0
Направление ветра
40
Скорость ветра (узлы)
6
Метео видимость
6.21
Облачность
SCT
Нижняя граница облачности (футы)
2600
Явления погоды
TS
Условия полета
VFR
Аэропорт подробнее: 
SCT – разбросанная отдельная облачность;

Авиационная погода в Берлевоге

Регион: 
Погода METAR: 
ENBV 091520Z AUTO 27011KT 9999 -RA SCT034 BKN044 OVC054 13/10 Q1016
Время наблюдения
2022-08-09T15:20:00Z
Температура C
13.0
Точка росы
10.0
Направление ветра
270
Скорость ветра (узлы)
11
Метео видимость
6.21
Облачность
SCT
BKN
OVC
Нижняя граница облачности (футы)
3400
4400
5400
Явления погоды
-RA
Условия полета
VFR
SCT – разбросанная отдельная облачность; BKN – значительная (рассеянная, разорванная) облачность; OVC – сплошная облачность;
-RA - слабый дождь;